createdAt,value
2018-10-09T00:00:49.623Z,3.5
2018-10-09T00:03:48.327Z,3.6
2018-10-09T00:06:48.283Z,3.6
2018-10-09T00:09:48.221Z,3.7
2018-10-09T00:12:48.332Z,3.7
2018-10-09T00:15:48.526Z,3.7
2018-10-09T00:18:48.084Z,3.7
2018-10-09T00:21:48.388Z,3.8
2018-10-09T00:24:48.204Z,3.8
2018-10-09T00:27:48.242Z,3.7
2018-10-09T00:30:48.063Z,3.6
2018-10-09T00:33:48.266Z,3.7
2018-10-09T00:36:48.386Z,3.7
2018-10-09T00:39:48.132Z,3.6
2018-10-09T00:42:47.940Z,3.7
2018-10-09T00:45:48.203Z,3.8
2018-10-09T00:48:47.976Z,3.8
2018-10-09T00:51:48.210Z,3.7
2018-10-09T00:54:48.573Z,3.8
2018-10-09T00:57:48.432Z,3.7
2018-10-09T01:00:48.379Z,3.6
2018-10-09T01:03:48.301Z,3.8
2018-10-09T01:06:48.146Z,3.8
2018-10-09T01:09:48.598Z,3.8
2018-10-09T01:12:48.191Z,3.8
2018-10-09T01:15:48.126Z,3.8
2018-10-09T01:18:48.185Z,3.9
2018-10-09T01:21:48.159Z,3.8
2018-10-09T01:24:48.191Z,3.8
2018-10-09T01:27:48.144Z,3.8
2018-10-09T01:30:48.144Z,3.8
2018-10-09T01:33:48.138Z,4
2018-10-09T01:36:48.081Z,3.9
2018-10-09T01:39:48.162Z,3.9
2018-10-09T01:42:48.184Z,3.9
2018-10-09T01:45:48.575Z,4
2018-10-09T01:48:47.974Z,4.1
2018-10-09T01:51:48.061Z,4
2018-10-09T01:54:48.218Z,3.9
2018-10-09T01:57:48.332Z,4
2018-10-09T02:00:48.790Z,3.9
2018-10-09T02:03:48.179Z,3.8
2018-10-09T02:06:48.062Z,3.8
2018-10-09T02:09:48.145Z,3.9
2018-10-09T02:12:48.721Z,3.9
2018-10-09T02:15:47.984Z,4
2018-10-09T02:18:48.324Z,4
2018-10-09T02:21:48.139Z,4.1
2018-10-09T02:24:48.532Z,4
2018-10-09T02:27:47.945Z,4
2018-10-09T02:30:48.607Z,4.1
2018-10-09T02:33:48.304Z,4.1
2018-10-09T02:36:48.271Z,4.2
2018-10-09T02:39:48.288Z,4.2
2018-10-09T02:42:48.141Z,4
2018-10-09T02:45:48.160Z,4
2018-10-09T02:48:48.004Z,4.3
2018-10-09T02:51:48.163Z,4.2
2018-10-09T02:54:48.474Z,4.3
2018-10-09T02:57:47.994Z,4.2
2018-10-09T03:00:48.089Z,4.2
2018-10-09T03:03:48.292Z,4.2
2018-10-09T03:06:48.174Z,4.1
2018-10-09T03:09:48.245Z,4.2
2018-10-09T03:12:48.334Z,4.1
2018-10-09T03:15:48.056Z,4.2
2018-10-09T03:18:48.147Z,4.1
2018-10-09T03:21:48.089Z,4.2
2018-10-09T03:24:48.079Z,4.2
2018-10-09T03:27:48.232Z,4.2
2018-10-09T03:30:47.868Z,4.3
2018-10-09T03:33:48.325Z,4.3
2018-10-09T03:36:48.128Z,4.4
2018-10-09T03:39:48.550Z,4.4
2018-10-09T03:42:48.492Z,4.4
2018-10-09T03:45:48.220Z,4.4
2018-10-09T03:48:47.938Z,4.4
2018-10-09T03:51:48.152Z,4.3
2018-10-09T03:54:48.116Z,4.4
2018-10-09T03:57:48.896Z,4.4
2018-10-09T04:00:48.262Z,4.4
2018-10-09T04:03:48.048Z,4.4
2018-10-09T04:06:47.884Z,4.4
2018-10-09T04:09:48.315Z,4.5
2018-10-09T04:12:49.759Z,4.3
2018-10-09T04:15:47.929Z,4.4
2018-10-09T04:18:48.339Z,4.3
2018-10-09T04:21:48.184Z,4.3
2018-10-09T04:24:48.081Z,4.4
2018-10-09T04:27:48.786Z,4.4
2018-10-09T04:30:47.873Z,4.6
2018-10-09T04:33:48.065Z,4.4
2018-10-09T04:36:48.957Z,4.4
2018-10-09T04:39:48.587Z,4.3
2018-10-09T04:42:47.933Z,4.4
2018-10-09T04:45:48.247Z,4.5
2018-10-09T04:48:48.197Z,4.5
2018-10-09T04:51:48.294Z,4.4
2018-10-09T04:54:48.279Z,4.4
2018-10-09T04:57:48.258Z,4.4
2018-10-09T05:00:50.053Z,4.5
2018-10-09T05:03:48.272Z,4.5
2018-10-09T05:06:48.489Z,4.5
2018-10-09T05:09:48.386Z,4.4
2018-10-09T05:12:48.064Z,4.4
2018-10-09T05:15:48.134Z,4.4
2018-10-09T05:18:47.959Z,4.6
2018-10-09T05:21:48.225Z,4.5
2018-10-09T05:24:48.192Z,4.6
2018-10-09T05:27:48.135Z,4.6
2018-10-09T05:30:48.059Z,4.5
2018-10-09T05:33:48.483Z,4.6
2018-10-09T05:36:48.266Z,4.6
2018-10-09T05:39:48.296Z,4.7
2018-10-09T05:42:48.142Z,4.6
2018-10-09T05:45:47.959Z,4.5
2018-10-09T05:48:48.235Z,4.5
2018-10-09T05:51:48.042Z,4.5
2018-10-09T05:54:47.912Z,4.7
2018-10-09T05:57:48.540Z,4.7
2018-10-09T06:00:48.053Z,4.8
2018-10-09T06:03:48.147Z,4.6
2018-10-09T06:06:48.202Z,4.8
2018-10-09T06:09:47.951Z,4.7
2018-10-09T06:12:47.964Z,4.8
2018-10-09T06:15:48.508Z,4.7
2018-10-09T06:18:48.188Z,4.8
2018-10-09T06:21:48.198Z,4.7
2018-10-09T06:24:48.345Z,4.6
2018-10-09T06:27:48.859Z,4.7
2018-10-09T06:30:48.509Z,5
2018-10-09T06:33:48.809Z,5
2018-10-09T06:36:47.952Z,4.9
2018-10-09T06:39:48.858Z,4.9
2018-10-09T06:42:50.036Z,4.8
2018-10-09T06:45:48.066Z,4.8
2018-10-09T06:48:48.096Z,4.9
2018-10-09T06:51:47.959Z,4.8
2018-10-09T06:54:49.621Z,4.9
2018-10-09T06:57:48.412Z,4.7
2018-10-09T07:00:48.295Z,4.8
2018-10-09T07:03:48.046Z,4.9
2018-10-09T07:06:48.268Z,4.8
2018-10-09T07:09:48.118Z,4.8
2018-10-09T07:12:48.056Z,4.8
2018-10-09T07:15:47.857Z,4.8
2018-10-09T07:18:48.001Z,4.8
2018-10-09T07:21:48.100Z,4.7
2018-10-09T07:24:48.086Z,4.7
2018-10-09T07:27:48.646Z,4.7
2018-10-09T07:30:48.016Z,4.7
2018-10-09T07:33:48.128Z,5.7
2018-10-09T07:36:47.953Z,6.1
2018-10-09T07:39:48.044Z,6.7
2018-10-09T07:42:48.172Z,6.9
2018-10-09T07:45:47.836Z,7.2
2018-10-09T07:48:48.139Z,7.4
2018-10-09T07:51:48.097Z,8.3
2018-10-09T07:54:48.140Z,8.9
2018-10-09T07:57:48.089Z,8.9
2018-10-09T08:00:48.090Z,9.7
2018-10-09T08:03:48.060Z,10.4
2018-10-09T08:06:48.125Z,12.2
2018-10-09T08:09:48.500Z,12.1
2018-10-09T08:12:48.180Z,11.4
2018-10-09T08:15:48.093Z,11.1
2018-10-09T08:18:47.905Z,11.1
2018-10-09T08:21:47.938Z,11
2018-10-09T08:24:48.169Z,10.6
2018-10-09T08:27:48.318Z,11.2
2018-10-09T08:30:48.142Z,10.5
2018-10-09T08:33:48.989Z,11
2018-10-09T08:36:47.854Z,11.9
2018-10-09T08:39:48.078Z,11.4
2018-10-09T08:42:47.836Z,11.2
2018-10-09T08:45:48.411Z,10.6
2018-10-09T08:48:48.112Z,11.5
2018-10-09T08:51:48.937Z,11.2
2018-10-09T08:54:48.112Z,11.2
2018-10-09T08:57:48.276Z,10.9
2018-10-09T09:00:48.020Z,10.2
2018-10-09T09:03:48.250Z,10.5
2018-10-09T09:06:48.251Z,10
2018-10-09T09:09:49.242Z,12.1
2018-10-09T09:12:48.392Z,11.2
2018-10-09T09:15:48.107Z,10.5
2018-10-09T09:18:47.963Z,10.3
2018-10-09T09:21:48.484Z,11.1
2018-10-09T09:24:47.973Z,10.6
2018-10-09T09:27:49.723Z,10.2
2018-10-09T09:30:47.729Z,9.6
2018-10-09T09:33:48.276Z,9
2018-10-09T09:36:48.070Z,8.5
2018-10-09T09:39:47.876Z,8.6
2018-10-09T09:42:48.113Z,8.7
2018-10-09T09:45:49.364Z,8.4
2018-10-09T09:48:48.129Z,8.8
2018-10-09T09:51:48.210Z,8.7
2018-10-09T09:54:48.029Z,8.4
2018-10-09T09:57:49.190Z,8.4
2018-10-09T10:00:47.978Z,8.3
2018-10-09T10:03:49.553Z,7.9
2018-10-09T10:06:47.913Z,7.9
2018-10-09T10:09:47.948Z,7.9
2018-10-09T10:12:47.976Z,7.7
2018-10-09T10:15:49.197Z,8.1
2018-10-09T10:18:48.490Z,8
2018-10-09T10:21:48.076Z,8.1
2018-10-09T10:24:48.031Z,7.9
2018-10-09T10:27:47.886Z,8
2018-10-09T10:30:48.316Z,7.9
2018-10-09T10:33:48.024Z,7.6
2018-10-09T10:36:49.801Z,7.4
2018-10-09T10:39:48.302Z,7.5
2018-10-09T10:42:47.859Z,7.6
2018-10-09T10:45:47.944Z,7.3
2018-10-09T10:48:48.753Z,7.2
2018-10-09T10:51:48.062Z,7.2
2018-10-09T10:54:49.074Z,7.2
2018-10-09T10:57:47.930Z,7.2
2018-10-09T11:00:48.407Z,7.3
2018-10-09T11:03:47.855Z,7.2
2018-10-09T11:06:48.050Z,7.2
2018-10-09T11:09:48.120Z,7
2018-10-09T11:12:48.129Z,7.2
2018-10-09T11:15:47.981Z,6.9
2018-10-09T11:18:48.094Z,6.9
2018-10-09T11:21:47.944Z,7.1
2018-10-09T11:24:47.895Z,6.9
2018-10-09T11:27:47.958Z,6.9
2018-10-09T11:30:47.878Z,7.2
2018-10-09T11:33:48.385Z,7.1
2018-10-09T11:36:47.937Z,7.1
2018-10-09T11:39:47.986Z,7.3
2018-10-09T11:42:49.525Z,8
2018-10-09T11:45:47.903Z,8.7
2018-10-09T11:48:48.362Z,9.4
2018-10-09T11:51:48.051Z,8.5
2018-10-09T11:54:48.034Z,8.1
2018-10-09T11:57:48.153Z,8.1
2018-10-09T12:00:47.901Z,8.2
2018-10-09T12:03:47.983Z,7.8
2018-10-09T12:06:47.976Z,7.7
2018-10-09T12:09:48.031Z,7.6
2018-10-09T12:12:47.936Z,7.6
2018-10-09T12:15:49.068Z,7.7
2018-10-09T12:18:47.939Z,8.9
2018-10-09T12:21:47.701Z,8.8
2018-10-09T12:24:48.106Z,8.4
2018-10-09T12:27:48.361Z,8.1
2018-10-09T12:30:48.669Z,8.1
2018-10-09T12:33:48.964Z,7.8
2018-10-09T12:36:48.097Z,7.8
2018-10-09T12:39:48.053Z,7.9
2018-10-09T12:42:47.899Z,7.9
2018-10-09T12:45:47.833Z,8.1
2018-10-09T12:48:48.016Z,7.8
2018-10-09T12:51:47.993Z,7.9
2018-10-09T12:54:48.403Z,8.1
2018-10-09T12:57:47.704Z,7.8
2018-10-09T13:00:47.953Z,7.8
2018-10-09T13:03:47.923Z,7.8
2018-10-09T13:06:47.805Z,7.7
2018-10-09T13:09:47.758Z,7.6
2018-10-09T13:12:47.842Z,7.7
2018-10-09T13:15:47.852Z,7.5
2018-10-09T13:18:48.204Z,7.4
2018-10-09T13:21:54.303Z,7.4
2018-10-09T13:24:47.900Z,7.4
2018-10-09T13:27:48.050Z,7.3
2018-10-09T13:30:49.123Z,7.4
2018-10-09T13:33:47.867Z,7.3
2018-10-09T13:36:47.877Z,7.4
2018-10-09T13:39:47.925Z,7.3
2018-10-09T13:42:47.941Z,7.2
2018-10-09T13:45:47.710Z,7
2018-10-09T13:48:47.804Z,7.1
2018-10-09T13:51:48.044Z,7.1
2018-10-09T13:54:47.654Z,7.1
2018-10-09T13:57:47.773Z,6.9
2018-10-09T14:00:48.231Z,7
2018-10-09T14:03:48.176Z,7
2018-10-09T14:06:48.427Z,7.5
2018-10-09T14:09:47.719Z,7.2
2018-10-09T14:12:48.093Z,7
2018-10-09T14:15:48.429Z,7
2018-10-09T14:18:48.218Z,6.9
2018-10-09T14:21:47.885Z,6.9
2018-10-09T14:24:47.746Z,6.8
2018-10-09T14:27:47.950Z,6.8
2018-10-09T14:30:47.941Z,6.5
2018-10-09T14:33:48.029Z,6.6
2018-10-09T14:36:47.966Z,6.5
2018-10-09T14:39:47.920Z,6.5
2018-10-09T14:42:48.257Z,6.4
2018-10-09T14:45:48.083Z,6.4
2018-10-09T14:48:47.919Z,6.6
2018-10-09T14:51:47.821Z,6.5
2018-10-09T14:54:48.078Z,6.5
2018-10-09T14:57:48.026Z,6.5
2018-10-09T15:00:47.831Z,6.4
2018-10-09T15:03:47.780Z,6.5
2018-10-09T15:06:47.782Z,6.5
2018-10-09T15:09:48.127Z,6.3
2018-10-09T15:12:48.012Z,6.3
2018-10-09T15:15:47.649Z,6.3
2018-10-09T15:18:48.265Z,6.4
2018-10-09T15:21:47.910Z,6.4
2018-10-09T15:24:48.201Z,6.4
2018-10-09T15:27:48.129Z,6.2
2018-10-09T15:30:48.031Z,6.2
2018-10-09T15:33:48.039Z,6.3
2018-10-09T15:36:47.990Z,6.2
2018-10-09T15:39:48.119Z,6.1
2018-10-09T15:42:47.932Z,6.3
2018-10-09T15:45:47.830Z,6.3
2018-10-09T15:48:47.737Z,6.3
2018-10-09T15:51:47.634Z,6.3
2018-10-09T15:54:47.841Z,6.4
2018-10-09T15:57:47.929Z,6.1
2018-10-09T16:00:47.749Z,6.1
2018-10-09T16:03:47.636Z,6.5
2018-10-09T16:06:47.838Z,6.8
2018-10-09T16:09:48.156Z,9.3
2018-10-09T16:12:48.077Z,9.5
2018-10-09T16:15:47.929Z,9.1
2018-10-09T16:18:48.085Z,10.1
2018-10-09T16:21:48.392Z,9.1
2018-10-09T16:24:48.161Z,8.3
2018-10-09T16:27:48.025Z,9.3
2018-10-09T16:30:48.047Z,8.3
2018-10-09T16:33:47.975Z,9
2018-10-09T16:36:48.035Z,8.9
2018-10-09T16:39:48.322Z,7.8
2018-10-09T16:42:48.004Z,7.8
2018-10-09T16:45:47.650Z,7.1
2018-10-09T16:48:47.908Z,8.3
2018-10-09T16:51:47.688Z,7.5
2018-10-09T16:54:48.214Z,6.9
2018-10-09T16:57:48.051Z,7
2018-10-09T17:00:47.768Z,6.9
2018-10-09T17:03:47.786Z,7.3
2018-10-09T17:06:49.635Z,7
2018-10-09T17:09:48.137Z,6.9
2018-10-09T17:12:48.284Z,6.7
2018-10-09T17:15:49.675Z,6.9
2018-10-09T17:18:47.792Z,7.5
2018-10-09T17:21:48.024Z,7.1
2018-10-09T17:24:47.796Z,6.9
2018-10-09T17:27:47.654Z,6.6
2018-10-09T17:30:48.068Z,6.7
2018-10-09T17:33:48.010Z,6.6
2018-10-09T17:36:47.635Z,6.6
2018-10-09T17:39:47.797Z,6.4
2018-10-09T17:42:47.799Z,6.5
2018-10-09T17:45:48.085Z,6.8
2018-10-09T17:48:48.852Z,7
2018-10-09T17:51:48.077Z,6.6
2018-10-09T17:54:47.952Z,6.5
2018-10-09T17:57:47.786Z,6.5
2018-10-09T18:00:47.798Z,6.4
2018-10-09T18:03:47.551Z,6.5
2018-10-09T18:06:48.129Z,6.5
2018-10-09T18:09:47.733Z,6.4
2018-10-09T18:12:47.670Z,6.4
2018-10-09T18:15:47.926Z,8.3
2018-10-09T18:18:48.333Z,8.1
2018-10-09T18:21:47.712Z,8
2018-10-09T18:24:47.657Z,8.4
2018-10-09T18:27:47.766Z,9.8
2018-10-09T18:30:47.990Z,10.2
2018-10-09T18:33:48.294Z,9.9
2018-10-09T18:36:47.827Z,10.5
2018-10-09T18:39:47.825Z,9.2
2018-10-09T18:42:48.082Z,12.1
2018-10-09T18:45:47.951Z,11.1
2018-10-09T18:48:47.635Z,11.8
2018-10-09T18:51:47.593Z,11
2018-10-09T18:54:47.752Z,10.4
2018-10-09T18:57:48.069Z,9.9
2018-10-09T19:00:48.361Z,10
2018-10-09T19:03:47.664Z,9.8
2018-10-09T19:06:47.684Z,9.6
2018-10-09T19:09:47.668Z,9.8
2018-10-09T19:12:47.636Z,9.7
2018-10-09T19:15:47.865Z,9.4
2018-10-09T19:18:47.781Z,12.1
2018-10-09T19:21:47.631Z,12
2018-10-09T19:24:48.193Z,12.4
2018-10-09T19:27:47.766Z,12.6
2018-10-09T19:30:47.712Z,12.3
2018-10-09T19:33:47.601Z,11
2018-10-09T19:36:47.882Z,11.5
2018-10-09T19:39:49.153Z,10.1
2018-10-09T19:42:47.640Z,10
2018-10-09T19:45:47.895Z,9.5
2018-10-09T19:48:47.573Z,10.4
2018-10-09T19:51:47.748Z,9.8
2018-10-09T19:54:47.763Z,10.6
2018-10-09T19:57:47.475Z,10.5
2018-10-09T20:00:48.327Z,10.2
2018-10-09T20:03:47.985Z,9
2018-10-09T20:06:47.681Z,9.1
2018-10-09T20:09:47.781Z,9.8
2018-10-09T20:12:48.210Z,9.2
2018-10-09T20:15:48.231Z,8.7
2018-10-09T20:18:47.833Z,10
2018-10-09T20:21:47.759Z,10
2018-10-09T20:24:48.203Z,10
2018-10-09T20:27:47.673Z,9.2
2018-10-09T20:30:48.117Z,8.9
2018-10-09T20:33:47.887Z,8.3
2018-10-09T20:36:47.744Z,7.8
2018-10-09T20:39:48.034Z,7.9
2018-10-09T20:42:47.536Z,7.9
2018-10-09T20:45:47.912Z,7.5
2018-10-09T20:48:47.956Z,9
2018-10-09T20:51:47.765Z,8.6
2018-10-09T20:54:49.085Z,8.2
2018-10-09T20:57:48.103Z,7.8
2018-10-09T21:00:47.657Z,9.3
2018-10-09T21:03:47.671Z,8.5
2018-10-09T21:06:47.675Z,7.9
2018-10-09T21:09:47.847Z,7.7
2018-10-09T21:12:48.803Z,7.4
2018-10-09T21:15:48.769Z,7.6
2018-10-09T21:18:48.398Z,7.4
2018-10-09T21:21:47.822Z,7.2
2018-10-09T21:24:48.498Z,7.5
2018-10-09T21:27:48.071Z,7.2
2018-10-09T21:30:47.554Z,7.2
2018-10-09T21:33:47.985Z,7.6
2018-10-09T21:36:48.035Z,7.4
2018-10-09T21:39:48.070Z,7.8
2018-10-09T21:42:47.920Z,7.8
2018-10-09T21:45:47.855Z,7.8
2018-10-09T21:48:47.915Z,7.4
2018-10-09T21:51:47.650Z,7.2
2018-10-09T21:54:47.796Z,7.3
2018-10-09T21:57:47.944Z,7
2018-10-09T22:00:48.266Z,7.1
2018-10-09T22:03:48.087Z,7.1
2018-10-09T22:06:47.804Z,7
2018-10-09T22:09:47.576Z,7.3
2018-10-09T22:12:48.331Z,7.2
2018-10-09T22:15:48.716Z,7
2018-10-09T22:18:47.672Z,7.2
2018-10-09T22:21:47.929Z,7
2018-10-09T22:24:48.208Z,7
2018-10-09T22:27:48.211Z,7
2018-10-09T22:30:47.699Z,6.8
2018-10-09T22:33:47.792Z,6.9
2018-10-09T22:36:47.577Z,7
2018-10-09T22:39:47.747Z,7.2
2018-10-09T22:42:47.565Z,6.8
2018-10-09T22:45:47.642Z,6.8
2018-10-09T22:48:47.547Z,6.8
2018-10-09T22:51:48.429Z,6.8
2018-10-09T22:54:47.503Z,6.8
2018-10-09T22:57:48.118Z,7.1
2018-10-09T23:00:47.993Z,7.1
2018-10-09T23:03:47.761Z,6.9
2018-10-09T23:06:47.976Z,6.9
2018-10-09T23:09:47.755Z,7
2018-10-09T23:12:48.375Z,6.8
2018-10-09T23:15:47.532Z,6.7
2018-10-09T23:18:48.383Z,6.7
2018-10-09T23:21:47.739Z,6.6
2018-10-09T23:24:48.146Z,6.9
2018-10-09T23:27:47.564Z,6.8
2018-10-09T23:30:47.676Z,6.8
2018-10-09T23:33:48.112Z,6.5
2018-10-09T23:36:47.782Z,6.8
2018-10-09T23:39:47.556Z,6.8
2018-10-09T23:42:50.219Z,6.7
2018-10-09T23:45:47.846Z,6.7
2018-10-09T23:48:47.426Z,6.7
2018-10-09T23:51:47.456Z,6.7
2018-10-09T23:54:47.961Z,6.8
2018-10-09T23:57:47.587Z,6.6
